createdAt,value
2022-12-31T00:01:23.615Z,97.80
2022-12-31T00:03:51.977Z,98.40
2022-12-31T00:06:28.569Z,98.60
2022-12-31T00:08:58.154Z,98.50
2022-12-31T00:11:28.256Z,98.20
2022-12-31T00:13:55.854Z,97.90
2022-12-31T00:16:28.858Z,97.80
2022-12-31T00:18:59.677Z,97.80
2022-12-31T00:21:30.029Z,97.50
2022-12-31T00:23:58.264Z,97.20
2022-12-31T00:26:29.563Z,97.40
2022-12-31T00:28:59.420Z,97.40
2022-12-31T00:31:35.654Z,97.10
2022-12-31T00:34:04.279Z,96.80
2022-12-31T00:36:37.560Z,96.70
2022-12-31T00:39:07.317Z,96.20
2022-12-31T00:41:35.326Z,95.90
2022-12-31T00:44:03.262Z,95.10
2022-12-31T00:46:32.005Z,95.00
2022-12-31T00:48:59.659Z,95.50
2022-12-31T00:51:30.223Z,95.50
2022-12-31T00:53:59.463Z,95.40
2022-12-31T00:56:30.674Z,96.20
2022-12-31T00:59:00.605Z,96.80
2022-12-31T01:01:31.066Z,96.70
2022-12-31T01:04:05.135Z,96.90
2022-12-31T01:06:33.053Z,97.20
2022-12-31T01:09:01.382Z,97.20
2022-12-31T01:11:31.782Z,96.80
2022-12-31T01:14:09.142Z,96.30
2022-12-31T01:16:42.779Z,95.90
2022-12-31T01:19:13.047Z,95.50
2022-12-31T01:21:41.810Z,95.60
2022-12-31T01:24:11.147Z,95.40
2022-12-31T01:26:40.596Z,95.00
2022-12-31T01:29:09.236Z,94.90
2022-12-31T01:31:37.469Z,94.50
2022-12-31T01:34:06.696Z,94.20
2022-12-31T01:36:37.099Z,94.00
2022-12-31T01:39:07.196Z,94.80
2022-12-31T01:41:37.293Z,95.30
2022-12-31T01:44:24.920Z,95.50
2022-12-31T01:46:59.003Z,95.40
2022-12-31T01:49:31.981Z,95.50
2022-12-31T01:52:11.397Z,95.10
2022-12-31T01:54:45.131Z,94.90
2022-12-31T01:57:14.097Z,94.80
2022-12-31T01:59:43.547Z,95.80
2022-12-31T02:02:12.032Z,96.40
2022-12-31T02:04:39.892Z,96.90
2022-12-31T02:07:09.845Z,97.20
2022-12-31T02:09:41.086Z,97.30
2022-12-31T02:12:11.743Z,96.90
2022-12-31T02:14:43.983Z,96.80
2022-12-31T02:17:24.229Z,96.80
2022-12-31T02:20:25.886Z,96.90
2022-12-31T02:23:03.182Z,96.80
2022-12-31T02:26:03.717Z,96.60
2022-12-31T02:28:59.086Z,96.40
2022-12-31T02:31:45.486Z,96.40
2022-12-31T02:34:28.860Z,96.50
2022-12-31T02:37:00.107Z,96.60
2022-12-31T02:39:29.380Z,95.20
2022-12-31T02:41:56.921Z,95.10
2022-12-31T02:44:44.507Z,95.20
2022-12-31T02:47:18.790Z,94.60
2022-12-31T02:50:14.618Z,94.80
2022-12-31T02:53:22.992Z,95.00
2022-12-31T02:56:19.183Z,94.10
2022-12-31T02:59:29.227Z,94.00
2022-12-31T03:02:15.569Z,94.10
2022-12-31T03:04:51.686Z,95.60
2022-12-31T03:07:25.165Z,95.90
2022-12-31T03:09:52.895Z,96.20
2022-12-31T03:12:42.182Z,95.80
2022-12-31T03:15:20.573Z,95.60
2022-12-31T03:18:05.910Z,95.30
2022-12-31T03:21:06.073Z,94.70
2022-12-31T03:24:03.469Z,94.60
2022-12-31T03:26:30.846Z,94.70
2022-12-31T03:28:58.277Z,94.40
2022-12-31T03:31:26.035Z,94.60
2022-12-31T03:33:53.823Z,94.40
2022-12-31T03:36:22.791Z,94.80
2022-12-31T03:38:52.820Z,94.60
2022-12-31T03:41:21.219Z,94.60
2022-12-31T03:43:48.516Z,94.70
2022-12-31T03:46:16.940Z,95.10
2022-12-31T03:48:44.401Z,95.50
2022-12-31T03:51:11.703Z,94.20
2022-12-31T03:53:40.034Z,95.30
2022-12-31T03:56:07.910Z,96.10
2022-12-31T03:58:35.712Z,96.50
2022-12-31T04:01:04.977Z,96.50
2022-12-31T04:03:33.082Z,96.70
2022-12-31T04:06:01.222Z,96.80
2022-12-31T04:08:29.931Z,96.40
2022-12-31T04:10:58.365Z,95.90
2022-12-31T04:13:26.921Z,95.40
2022-12-31T04:15:56.897Z,95.70
2022-12-31T04:18:24.919Z,95.80
2022-12-31T04:20:52.394Z,95.80
2022-12-31T04:23:20.714Z,96.10
2022-12-31T04:25:48.106Z,95.80
2022-12-31T04:28:16.078Z,95.70
2022-12-31T04:30:48.806Z,95.60
2022-12-31T04:33:16.274Z,95.70
2022-12-31T04:35:44.873Z,95.70
2022-12-31T04:38:12.558Z,94.40
2022-12-31T04:40:58.428Z,94.60
2022-12-31T04:43:25.767Z,95.20
2022-12-31T04:45:56.144Z,95.50
2022-12-31T04:48:24.807Z,95.40
2022-12-31T04:50:52.543Z,95.30
2022-12-31T04:53:19.905Z,95.20
2022-12-31T04:55:47.342Z,95.10
2022-12-31T04:58:14.892Z,95.10
2022-12-31T05:00:50.768Z,94.90
2022-12-31T05:03:19.032Z,93.10
2022-12-31T05:05:47.680Z,94.50
2022-12-31T05:08:16.854Z,96.10
2022-12-31T05:10:50.020Z,97.00
2022-12-31T05:13:17.993Z,97.00
2022-12-31T05:15:53.095Z,97.00
2022-12-31T05:18:21.323Z,96.70
2022-12-31T05:20:50.161Z,96.00
2022-12-31T05:23:18.658Z,95.80
2022-12-31T05:25:48.088Z,96.10
2022-12-31T05:28:17.593Z,95.80
2022-12-31T05:30:51.628Z,95.50
2022-12-31T05:33:20.014Z,96.40
2022-12-31T05:35:47.463Z,97.00
2022-12-31T05:38:15.814Z,97.10
2022-12-31T05:40:43.268Z,97.10
2022-12-31T05:43:10.791Z,96.80
2022-12-31T05:45:44.897Z,95.90
2022-12-31T05:48:14.789Z,95.40
2022-12-31T05:50:42.027Z,95.60
2022-12-31T05:53:09.452Z,95.40
2022-12-31T05:55:36.803Z,95.40
2022-12-31T05:58:04.795Z,95.30
2022-12-31T06:00:32.778Z,95.00
2022-12-31T06:03:00.288Z,94.90
2022-12-31T06:05:27.971Z,94.20
2022-12-31T06:07:55.803Z,94.50
2022-12-31T06:10:23.618Z,94.70
2022-12-31T06:12:51.614Z,95.00
2022-12-31T06:15:19.172Z,95.30
2022-12-31T06:17:46.419Z,95.20
2022-12-31T06:20:17.024Z,94.30
2022-12-31T06:22:45.420Z,94.00
2022-12-31T06:25:13.324Z,94.40
2022-12-31T06:27:40.720Z,95.00
2022-12-31T06:30:09.209Z,95.60
2022-12-31T06:32:36.830Z,95.40
2022-12-31T06:35:06.955Z,95.70
2022-12-31T06:37:35.371Z,95.50
2022-12-31T06:40:03.532Z,95.30
2022-12-31T06:42:32.686Z,95.50
2022-12-31T06:45:01.564Z,95.80
2022-12-31T06:47:29.511Z,96.10
2022-12-31T06:49:57.290Z,96.30
2022-12-31T06:52:24.884Z,95.40
2022-12-31T06:54:53.213Z,95.80
2022-12-31T06:57:21.772Z,96.20
2022-12-31T06:59:49.704Z,96.60
2022-12-31T07:02:23.675Z,96.80
2022-12-31T07:05:16.107Z,96.70
2022-12-31T07:08:03.918Z,96.20
2022-12-31T07:10:51.910Z,96.00
2022-12-31T07:13:38.568Z,94.50
2022-12-31T07:16:38.660Z,93.50
2022-12-31T07:19:25.874Z,93.90
2022-12-31T07:21:56.220Z,94.70
2022-12-31T07:24:24.131Z,95.10
2022-12-31T07:27:17.893Z,95.00
2022-12-31T07:29:59.096Z,94.80
2022-12-31T07:32:57.149Z,93.60
2022-12-31T07:35:50.488Z,91.00
2022-12-31T07:38:24.025Z,92.60
2022-12-31T07:41:22.173Z,92.60
2022-12-31T07:44:23.149Z,92.20
2022-12-31T07:47:01.454Z,92.20
2022-12-31T07:49:31.021Z,91.50
2022-12-31T07:51:59.117Z,90.10
2022-12-31T07:54:26.572Z,89.60
2022-12-31T07:56:59.362Z,89.10
2022-12-31T07:59:46.995Z,88.20
2022-12-31T08:02:35.951Z,86.20
2022-12-31T08:05:14.417Z,89.00
2022-12-31T08:08:13.170Z,89.40
2022-12-31T08:11:22.616Z,89.10
2022-12-31T08:13:52.959Z,88.40
2022-12-31T08:16:24.237Z,87.00
2022-12-31T08:18:53.188Z,85.60
2022-12-31T08:21:44.763Z,84.10
2022-12-31T08:24:22.914Z,85.30
2022-12-31T08:27:03.397Z,87.10
2022-12-31T08:29:35.925Z,88.40
2022-12-31T08:32:20.687Z,88.30
2022-12-31T08:35:02.976Z,87.60
2022-12-31T08:37:45.156Z,87.90
2022-12-31T08:40:31.976Z,87.20
2022-12-31T08:43:27.775Z,87.60
2022-12-31T08:45:59.678Z,85.90
2022-12-31T08:48:40.131Z,84.20
2022-12-31T08:51:15.611Z,81.80
2022-12-31T08:53:43.536Z,80.60
2022-12-31T08:56:20.637Z,81.00
2022-12-31T08:59:06.042Z,80.60
2022-12-31T09:02:01.219Z,79.30
2022-12-31T09:04:56.045Z,79.70
2022-12-31T09:07:36.247Z,79.50
2022-12-31T09:10:18.298Z,76.30
2022-12-31T09:13:13.605Z,72.50
2022-12-31T09:15:47.236Z,66.20
2022-12-31T09:18:16.597Z,63.00
2022-12-31T09:20:44.848Z,58.50
2022-12-31T09:30:00.482Z,48.60
2022-12-31T09:32:49.345Z,48.20
2022-12-31T09:35:36.086Z,49.70
2022-12-31T09:38:23.018Z,48.70
2022-12-31T09:41:17.638Z,48.20
2022-12-31T09:44:31.731Z,47.20
2022-12-31T09:47:36.988Z,45.50
2022-12-31T09:50:21.815Z,42.90
2022-12-31T09:53:14.398Z,42.40
2022-12-31T09:56:13.464Z,41.50
2022-12-31T09:59:20.962Z,41.70
2022-12-31T10:02:01.800Z,41.30
2022-12-31T10:04:52.519Z,40.70
2022-12-31T10:07:21.266Z,40.40
2022-12-31T10:09:57.059Z,42.10
2022-12-31T10:12:52.504Z,40.50
2022-12-31T10:15:50.861Z,40.90
2022-12-31T10:18:29.293Z,41.20
2022-12-31T10:21:19.995Z,40.30
2022-12-31T10:24:08.783Z,39.40
2022-12-31T10:27:01.791Z,40.10
2022-12-31T10:29:49.216Z,40.30
2022-12-31T10:32:24.987Z,40.40
2022-12-31T10:35:26.131Z,40.00
2022-12-31T10:38:12.553Z,39.50
2022-12-31T10:40:42.772Z,40.70
2022-12-31T10:43:28.243Z,40.20
2022-12-31T10:46:22.673Z,38.30
2022-12-31T10:49:22.181Z,37.90
2022-12-31T10:52:16.812Z,38.20
2022-12-31T10:55:02.585Z,38.40
2022-12-31T10:57:52.302Z,39.70
2022-12-31T11:00:21.359Z,41.10
2022-12-31T11:03:13.165Z,40.20
2022-12-31T11:06:23.285Z,40.00
2022-12-31T11:09:10.595Z,41.80
2022-12-31T11:12:08.317Z,40.60
2022-12-31T11:14:48.343Z,38.50
2022-12-31T11:17:21.202Z,38.00
2022-12-31T11:20:17.290Z,41.40
2022-12-31T11:23:04.960Z,43.10
2022-12-31T11:25:44.739Z,41.90
2022-12-31T11:29:04.506Z,43.20
2022-12-31T11:32:20.623Z,44.80
2022-12-31T11:35:01.015Z,44.00
2022-12-31T11:37:49.830Z,45.10
2022-12-31T11:40:38.393Z,47.00
2022-12-31T11:43:20.235Z,47.90
2022-12-31T11:46:06.790Z,48.10
2022-12-31T11:49:05.310Z,49.80
2022-12-31T11:51:54.050Z,50.50
2022-12-31T11:54:58.206Z,51.10
2022-12-31T11:57:28.309Z,52.50
2022-12-31T12:00:10.327Z,52.80
2022-12-31T12:02:46.995Z,54.50
2022-12-31T12:05:17.433Z,55.00
2022-12-31T12:07:45.097Z,54.80
2022-12-31T12:10:33.573Z,54.30
2022-12-31T12:13:27.714Z,52.70
2022-12-31T12:16:05.523Z,53.60
2022-12-31T12:18:47.558Z,53.50
2022-12-31T12:21:20.823Z,55.00
2022-12-31T12:23:57.315Z,55.30
2022-12-31T12:26:41.830Z,54.50
2022-12-31T12:29:21.636Z,53.50
2022-12-31T12:32:16.008Z,54.00
2022-12-31T12:34:49.387Z,55.40
2022-12-31T12:37:30.148Z,54.10
2022-12-31T12:40:19.469Z,55.80
2022-12-31T12:42:52.024Z,55.90
2022-12-31T12:45:51.487Z,53.40
2022-12-31T12:48:42.629Z,52.20
2022-12-31T12:51:43.989Z,53.30
2022-12-31T12:54:48.476Z,54.20
2022-12-31T12:57:25.836Z,56.20
2022-12-31T13:00:16.233Z,55.00
2022-12-31T13:03:08.137Z,54.70
2022-12-31T13:05:55.400Z,54.30
2022-12-31T13:08:29.203Z,52.90
2022-12-31T13:11:18.913Z,53.10
2022-12-31T13:14:31.357Z,52.60
2022-12-31T13:17:13.873Z,51.20
2022-12-31T13:20:05.837Z,52.70
2022-12-31T13:22:48.225Z,53.00
2022-12-31T13:25:38.849Z,52.60
2022-12-31T13:28:12.016Z,50.80
2022-12-31T13:30:48.247Z,51.60
2022-12-31T13:33:29.104Z,50.80
2022-12-31T13:36:08.494Z,52.30
2022-12-31T13:39:02.547Z,50.30
2022-12-31T13:42:10.996Z,53.60
2022-12-31T13:44:56.313Z,53.20
2022-12-31T13:47:43.104Z,50.60
2022-12-31T13:50:20.390Z,48.60
2022-12-31T13:52:54.543Z,50.20
2022-12-31T13:55:45.562Z,50.40
2022-12-31T13:58:20.824Z,49.20
2022-12-31T14:00:59.029Z,48.00
2022-12-31T14:03:49.936Z,47.40
2022-12-31T14:06:40.674Z,47.40
2022-12-31T14:09:15.499Z,45.90
2022-12-31T14:12:24.853Z,44.80
2022-12-31T14:15:04.051Z,46.10
2022-12-31T14:17:49.679Z,45.90
2022-12-31T14:20:49.987Z,46.90
2022-12-31T14:23:46.355Z,48.80
2022-12-31T14:26:17.072Z,47.80
2022-12-31T14:29:01.557Z,47.80
2022-12-31T14:31:48.777Z,47.60
2022-12-31T14:34:16.443Z,46.70
2022-12-31T14:37:07.891Z,48.50
2022-12-31T14:40:23.632Z,52.50
2022-12-31T14:43:06.662Z,52.90
2022-12-31T14:45:56.687Z,54.20
2022-12-31T14:48:37.135Z,56.80
2022-12-31T14:51:05.970Z,57.10
2022-12-31T14:53:34.787Z,60.30
2022-12-31T14:56:28.621Z,60.40
2022-12-31T14:59:01.748Z,61.90
2022-12-31T15:01:30.254Z,64.20
2022-12-31T15:03:59.638Z,65.80
2022-12-31T15:06:43.499Z,66.90
2022-12-31T15:09:36.167Z,67.00
2022-12-31T15:12:30.562Z,66.90
2022-12-31T15:15:24.289Z,66.90
2022-12-31T15:17:55.042Z,68.00
2022-12-31T15:21:02.981Z,69.10
2022-12-31T15:23:38.969Z,71.00
2022-12-31T15:26:20.478Z,71.70
2022-12-31T15:29:05.380Z,71.10
2022-12-31T15:31:35.694Z,70.90
2022-12-31T15:34:06.143Z,71.60
2022-12-31T15:36:39.371Z,74.90
2022-12-31T15:39:28.624Z,76.20
2022-12-31T15:45:17.371Z,77.60
2022-12-31T15:47:50.600Z,78.20
2022-12-31T15:50:23.629Z,78.00
2022-12-31T15:53:02.175Z,76.90
2022-12-31T15:55:34.363Z,76.10
2022-12-31T15:58:18.985Z,75.90
2022-12-31T16:01:05.158Z,76.20
2022-12-31T16:03:35.197Z,76.30
2022-12-31T16:06:13.598Z,75.90
2022-12-31T16:08:46.882Z,76.40
2022-12-31T16:11:16.785Z,76.40
2022-12-31T16:13:50.527Z,78.70
2022-12-31T16:16:24.614Z,79.30
2022-12-31T16:19:00.698Z,79.80
2022-12-31T16:21:33.128Z,79.60
2022-12-31T16:24:29.864Z,79.00
2022-12-31T16:27:02.896Z,78.20
2022-12-31T16:29:31.107Z,77.20
2022-12-31T16:31:59.583Z,79.40
2022-12-31T16:34:28.532Z,82.30
2022-12-31T16:37:01.554Z,83.70
2022-12-31T16:39:32.778Z,84.00
2022-12-31T16:42:20.385Z,83.20
2022-12-31T16:44:49.106Z,81.60
2022-12-31T16:47:41.583Z,80.50
2022-12-31T16:50:17.331Z,80.30
2022-12-31T16:52:48.459Z,79.70
2022-12-31T16:55:23.673Z,80.00
2022-12-31T16:57:55.902Z,80.80
2022-12-31T17:00:26.440Z,79.40
2022-12-31T17:03:15.661Z,79.20
2022-12-31T17:06:07.400Z,79.00
2022-12-31T17:08:45.068Z,79.50
2022-12-31T17:11:52.153Z,81.80
2022-12-31T17:14:23.449Z,82.20
2022-12-31T17:17:03.652Z,84.20
2022-12-31T17:19:42.832Z,85.80
2022-12-31T17:22:36.968Z,87.60
2022-12-31T17:25:15.344Z,87.40
2022-12-31T17:27:54.380Z,85.80
2022-12-31T17:30:45.704Z,83.70
2022-12-31T17:33:21.815Z,83.30
2022-12-31T17:35:55.233Z,84.20
2022-12-31T17:38:26.007Z,85.00
2022-12-31T17:40:54.902Z,87.00
2022-12-31T17:43:23.895Z,88.00
2022-12-31T17:45:55.865Z,87.30
2022-12-31T17:48:25.168Z,86.30
2022-12-31T17:51:01.214Z,85.60
2022-12-31T17:53:29.269Z,86.20
2022-12-31T17:56:02.505Z,85.80
2022-12-31T17:58:43.726Z,84.80
2022-12-31T18:01:16.074Z,84.20
2022-12-31T18:03:44.125Z,85.80
2022-12-31T18:06:16.495Z,85.80
2022-12-31T18:08:45.279Z,85.50
2022-12-31T18:11:18.566Z,84.70
2022-12-31T18:13:47.099Z,83.70
2022-12-31T18:16:15.473Z,82.50
2022-12-31T18:18:43.971Z,83.20
2022-12-31T18:21:34.730Z,83.20
2022-12-31T18:26:34.140Z,82.30
2022-12-31T18:29:19.467Z,83.20
2022-12-31T18:31:49.295Z,83.30
2022-12-31T18:34:18.531Z,84.00
2022-12-31T18:36:46.665Z,84.70
2022-12-31T18:39:14.388Z,85.10
2022-12-31T18:41:51.456Z,85.20
2022-12-31T18:44:19.700Z,86.80
2022-12-31T18:46:47.823Z,88.00
2022-12-31T18:49:15.086Z,88.50
2022-12-31T18:51:43.106Z,88.20
2022-12-31T18:54:12.110Z,87.30
2022-12-31T18:56:46.521Z,88.70
2022-12-31T18:59:15.149Z,89.50
2022-12-31T19:01:43.150Z,88.30
2022-12-31T19:04:16.885Z,87.70
2022-12-31T19:06:48.720Z,87.70
2022-12-31T19:09:43.586Z,87.00
2022-12-31T19:12:05.502Z,85.90
2022-12-31T19:14:32.891Z,87.70
2022-12-31T19:19:28.970Z,89.30
2022-12-31T19:21:56.324Z,88.90
2022-12-31T19:24:29.627Z,89.00
2022-12-31T19:26:57.117Z,90.30
2022-12-31T19:29:27.051Z,90.80
2022-12-31T19:31:54.910Z,90.20
2022-12-31T19:34:23.128Z,89.70
2022-12-31T19:36:50.466Z,88.50
2022-12-31T19:39:21.908Z,86.30
2022-12-31T19:41:56.615Z,86.10
2022-12-31T19:44:26.908Z,86.10
2022-12-31T19:46:55.223Z,85.40
2022-12-31T19:49:23.551Z,85.30
2022-12-31T19:51:51.237Z,84.90
2022-12-31T19:54:18.743Z,86.40
2022-12-31T19:56:46.438Z,88.50
2022-12-31T19:59:13.826Z,89.60
2022-12-31T20:01:42.695Z,89.20
2022-12-31T20:04:10.274Z,87.70
2022-12-31T20:06:38.707Z,87.90
2022-12-31T20:09:06.067Z,88.50
2022-12-31T20:11:33.549Z,91.40
2022-12-31T20:14:02.842Z,91.90
2022-12-31T20:16:33.078Z,91.10
2022-12-31T20:19:01.047Z,89.80
2022-12-31T20:21:29.579Z,87.60
2022-12-31T20:23:57.352Z,88.50
2022-12-31T20:26:26.055Z,90.30
2022-12-31T20:28:54.153Z,91.20
2022-12-31T20:31:24.945Z,91.20
2022-12-31T20:33:54.363Z,91.00
2022-12-31T20:36:24.172Z,89.90
2022-12-31T20:38:51.814Z,89.20
2022-12-31T20:41:22.242Z,88.40
2022-12-31T20:43:51.588Z,87.00
2022-12-31T20:46:22.592Z,86.70
2022-12-31T20:48:52.591Z,86.70
2022-12-31T20:51:22.186Z,86.80
2022-12-31T20:53:57.650Z,86.30
2022-12-31T20:56:28.054Z,85.00
2022-12-31T20:58:55.510Z,84.30
2022-12-31T21:01:23.866Z,86.50
2022-12-31T21:04:08.611Z,87.40
2022-12-31T21:06:36.789Z,87.30
2022-12-31T21:09:07.534Z,86.70
2022-12-31T21:11:54.484Z,86.60
2022-12-31T21:14:22.125Z,85.50
2022-12-31T21:16:50.098Z,88.20
2022-12-31T21:19:17.551Z,89.70
2022-12-31T21:21:44.973Z,89.90
2022-12-31T21:24:12.844Z,89.00
2022-12-31T21:26:41.324Z,90.50
2022-12-31T21:29:09.952Z,90.50
2022-12-31T21:31:37.404Z,91.10
2022-12-31T21:34:04.663Z,90.90
2022-12-31T21:36:33.198Z,90.80
2022-12-31T21:39:01.472Z,89.60
2022-12-31T21:41:48.157Z,88.40
2022-12-31T21:44:16.736Z,87.90
2022-12-31T21:47:15.944Z,87.00
2022-12-31T21:49:31.591Z,87.00
2022-12-31T21:52:45.267Z,85.00
2022-12-31T21:55:43.719Z,86.90
2022-12-31T21:58:31.696Z,89.80
2022-12-31T22:01:19.930Z,91.50
2022-12-31T22:03:48.148Z,92.20
2022-12-31T22:06:22.615Z,92.50
2022-12-31T22:08:52.334Z,92.00
2022-12-31T22:15:21.752Z,93.20
2022-12-31T22:17:54.595Z,93.00
2022-12-31T22:20:29.516Z,92.50
2022-12-31T22:22:56.985Z,92.30
2022-12-31T22:25:24.378Z,92.30
2022-12-31T22:28:27.721Z,92.30
2022-12-31T22:30:45.615Z,91.60
2022-12-31T22:33:12.974Z,91.50
2022-12-31T22:35:41.374Z,90.50
2022-12-31T22:38:12.137Z,91.20
2022-12-31T22:40:40.400Z,91.60
2022-12-31T22:43:07.728Z,91.70
2022-12-31T22:45:42.329Z,91.40
2022-12-31T22:48:11.165Z,90.90
2022-12-31T22:50:39.916Z,90.80
2022-12-31T22:53:07.367Z,88.60
2022-12-31T22:55:35.916Z,87.30
2022-12-31T22:58:03.776Z,88.90
2022-12-31T23:00:40.612Z,89.90
2022-12-31T23:03:08.402Z,90.80
2022-12-31T23:05:35.992Z,91.30
2022-12-31T23:08:11.867Z,91.20
2022-12-31T23:11:00.509Z,90.30
2022-12-31T23:13:50.999Z,89.60
2022-12-31T23:16:40.230Z,88.20
2022-12-31T23:19:28.557Z,87.30
2022-12-31T23:22:15.603Z,86.70
2022-12-31T23:24:43.978Z,88.00
2022-12-31T23:27:11.864Z,87.60
2022-12-31T23:29:46.661Z,89.40
2022-12-31T23:32:16.729Z,91.70
2022-12-31T23:34:46.733Z,92.90
2022-12-31T23:37:14.886Z,93.00
2022-12-31T23:39:43.468Z,92.00
2022-12-31T23:42:10.941Z,91.70
2022-12-31T23:44:39.061Z,92.20
2022-12-31T23:47:06.781Z,91.70
2022-12-31T23:49:35.249Z,92.10
2022-12-31T23:52:09.722Z,93.30
2022-12-31T23:54:48.548Z,94.30
2022-12-31T23:57:17.615Z,94.60
2022-12-31T23:59:46.408Z,94.40
